createdAt,value
2022-10-09T00:01:06.369Z,102274.94
2022-10-09T00:03:34.388Z,102261.09
2022-10-09T00:06:00.970Z,102266.22
2022-10-09T00:08:27.482Z,102259.25
2022-10-09T00:10:54.583Z,102267.84
2022-10-09T00:13:21.295Z,102236.50
2022-10-09T00:15:48.122Z,102262.59
2022-10-09T00:18:16.995Z,102264.25
2022-10-09T00:20:46.200Z,102260.78
2022-10-09T00:23:18.244Z,102252.97
2022-10-09T00:25:52.707Z,102252.00
2022-10-09T00:28:20.463Z,102249.41
2022-10-09T00:30:47.127Z,102237.16
2022-10-09T00:33:13.907Z,102242.38
2022-10-09T00:35:40.900Z,102246.69
2022-10-09T00:38:08.122Z,102249.22
2022-10-09T00:40:35.539Z,102246.56
2022-10-09T00:43:02.584Z,102243.13
2022-10-09T00:45:30.077Z,102243.00
2022-10-09T00:48:03.182Z,102244.72
2022-10-09T00:50:41.948Z,102225.41
2022-10-09T00:53:12.978Z,102246.34
2022-10-09T00:55:39.838Z,102239.34
2022-10-09T00:58:06.678Z,102230.66
2022-10-09T01:00:33.349Z,102205.28
2022-10-09T01:02:59.826Z,102238.34
2022-10-09T01:05:49.682Z,102229.59
2022-10-09T01:08:46.549Z,102231.41
2022-10-09T01:11:48.373Z,102227.03
2022-10-09T01:14:39.519Z,102231.25
2022-10-09T01:17:15.329Z,102196.38
2022-10-09T01:19:57.862Z,102234.63
2022-10-09T01:22:45.108Z,102229.41
2022-10-09T01:25:14.997Z,102225.03
2022-10-09T01:27:42.217Z,102231.00
2022-10-09T01:30:11.033Z,102224.88
2022-10-09T01:32:43.016Z,102210.88
2022-10-09T01:35:12.570Z,102215.16
2022-10-09T01:37:42.146Z,102219.44
2022-10-09T01:40:10.201Z,102218.53
2022-10-09T01:42:37.048Z,102214.09
2022-10-09T01:45:04.065Z,102207.16
2022-10-09T01:47:30.621Z,102198.47
2022-10-09T01:50:25.997Z,102201.00
2022-10-09T01:53:01.075Z,102195.06
2022-10-09T01:55:36.253Z,102186.44
2022-10-09T01:58:26.969Z,102188.94
2022-10-09T02:01:07.981Z,102188.03
2022-10-09T02:03:36.267Z,102178.53
2022-10-09T02:06:06.114Z,102175.91
2022-10-09T02:08:36.170Z,102161.09
2022-10-09T02:11:03.563Z,102156.00
2022-10-09T02:13:32.406Z,102155.13
2022-10-09T02:16:11.016Z,102156.88
2022-10-09T02:18:42.596Z,102149.97
2022-10-09T02:21:16.528Z,102149.03
2022-10-09T02:23:46.234Z,102146.44
2022-10-09T02:26:14.104Z,102129.03
2022-10-09T02:28:45.678Z,102144.69
2022-10-09T02:31:29.541Z,102152.41
2022-10-09T02:34:01.393Z,102137.66
2022-10-09T02:36:29.247Z,102142.88
2022-10-09T02:38:56.621Z,102144.56
2022-10-09T02:41:24.096Z,102141.09
2022-10-09T02:43:50.613Z,102095.88
2022-10-09T02:46:17.462Z,102112.38
2022-10-09T02:48:44.460Z,102130.69
2022-10-09T02:51:11.563Z,102128.06
2022-10-09T02:53:38.163Z,102122.00
2022-10-09T02:56:05.023Z,102120.16
2022-10-09T02:58:32.642Z,102112.41
2022-10-09T03:00:59.369Z,102111.50
2022-10-09T03:03:26.197Z,102108.06
2022-10-09T03:06:04.371Z,102104.53
2022-10-09T03:08:31.534Z,102102.78
2022-10-09T03:10:58.089Z,102089.75
2022-10-09T03:13:24.698Z,102093.16
2022-10-09T03:15:51.354Z,102084.44
2022-10-09T03:18:18.029Z,102085.28
2022-10-09T03:20:44.849Z,102074.81
2022-10-09T03:23:12.300Z,102078.34
2022-10-09T03:25:38.812Z,102083.50
2022-10-09T03:28:05.465Z,102048.63
2022-10-09T03:30:32.085Z,102073.03
2022-10-09T03:32:58.580Z,102073.03
2022-10-09T03:35:25.136Z,102060.63
2022-10-09T03:37:51.597Z,102041.53
2022-10-09T03:40:18.434Z,102067.72
2022-10-09T03:42:44.925Z,102049.44
2022-10-09T03:45:11.440Z,102060.63
2022-10-09T03:47:37.918Z,102033.59
2022-10-09T03:50:04.739Z,102048.41
2022-10-09T03:52:31.395Z,102031.00
2022-10-09T03:54:57.901Z,102046.66
2022-10-09T03:57:24.362Z,102043.19
2022-10-09T03:59:50.835Z,102022.13
2022-10-09T04:02:17.402Z,102023.81
2022-10-09T04:04:44.023Z,102043.06
2022-10-09T04:07:10.500Z,102042.22
2022-10-09T04:09:37.067Z,102011.75
2022-10-09T04:12:03.770Z,102022.13
2022-10-09T04:14:30.225Z,102029.16
2022-10-09T04:16:56.706Z,102026.47
2022-10-09T04:19:23.183Z,102003.78
2022-10-09T04:21:49.655Z,101979.41
2022-10-09T04:24:16.738Z,102032.44
2022-10-09T04:26:43.205Z,102025.50
2022-10-09T04:29:11.283Z,102025.50
2022-10-09T04:31:37.815Z,101988.00
2022-10-09T04:34:04.522Z,102015.09
2022-10-09T04:36:31.071Z,102010.81
2022-10-09T04:38:57.647Z,102005.59
2022-10-09T04:41:24.193Z,102008.06
2022-10-09T04:43:55.766Z,102017.66
2022-10-09T04:46:23.925Z,101981.97
2022-10-09T04:48:50.437Z,101982.84
2022-10-09T04:51:18.597Z,102003.78
2022-10-09T04:53:45.939Z,102002.00
2022-10-09T04:56:15.141Z,101999.41
2022-10-09T04:58:42.609Z,101994.25
2022-10-09T05:01:12.146Z,101989.94
2022-10-09T05:03:38.667Z,101988.94
2022-10-09T05:06:08.214Z,102001.06
2022-10-09T05:08:35.803Z,102002.75
2022-10-09T05:11:04.909Z,101993.25
2022-10-09T05:13:32.473Z,101996.66
2022-10-09T05:16:08.351Z,101994.88
2022-10-09T05:18:35.627Z,101994.84
2022-10-09T05:21:05.334Z,101995.69
2022-10-09T05:23:32.861Z,101976.59
2022-10-09T05:26:02.170Z,101994.03
2022-10-09T05:28:28.760Z,101987.06
2022-10-09T05:30:55.580Z,101992.28
2022-10-09T05:33:22.130Z,101993.97
2022-10-09T05:35:53.162Z,101991.38
2022-10-09T05:38:20.726Z,101992.22
2022-10-09T05:40:57.925Z,101985.25
2022-10-09T05:43:26.420Z,101986.97
2022-10-09T05:45:53.420Z,101956.47
2022-10-09T05:48:21.226Z,101952.06
2022-10-09T05:50:48.185Z,101974.88
2022-10-09T05:53:14.962Z,101978.28
2022-10-09T05:55:41.457Z,101975.66
2022-10-09T05:58:08.037Z,101973.00
2022-10-09T06:00:34.553Z,101960.63
2022-10-09T06:03:01.092Z,101972.03
2022-10-09T06:05:27.610Z,101981.50
2022-10-09T06:07:54.173Z,101981.47
2022-10-09T06:10:20.686Z,101976.19
2022-10-09T06:12:47.467Z,101986.56
2022-10-09T06:15:14.363Z,101958.75
2022-10-09T06:17:40.831Z,101960.41
2022-10-09T06:20:07.643Z,101981.31
2022-10-09T06:22:34.227Z,101955.22
2022-10-09T06:25:00.689Z,101975.25
2022-10-09T06:27:28.079Z,101980.44
2022-10-09T06:29:55.992Z,101979.56
2022-10-09T06:32:22.461Z,101973.53
2022-10-09T06:34:48.996Z,101979.53
2022-10-09T06:37:15.486Z,101970.84
2022-10-09T06:39:41.937Z,101956.09
2022-10-09T06:42:08.388Z,101955.25
2022-10-09T06:44:34.913Z,101933.63
2022-10-09T06:47:01.420Z,101954.53
2022-10-09T06:49:27.953Z,101958.94
2022-10-09T06:51:54.472Z,101967.53
2022-10-09T06:54:20.932Z,101964.22
2022-10-09T06:56:47.396Z,101952.13
2022-10-09T06:59:13.894Z,101957.41
2022-10-09T07:01:40.524Z,101954.97
2022-10-09T07:04:10.999Z,101952.41
2022-10-09T07:06:40.005Z,101950.72
2022-10-09T07:09:09.435Z,101951.66
2022-10-09T07:11:38.416Z,101948.38
2022-10-09T07:14:07.287Z,101916.31
2022-10-09T07:16:39.747Z,101940.84
2022-10-09T07:19:08.247Z,101943.66
2022-10-09T07:21:35.479Z,101941.22
2022-10-09T07:24:03.691Z,101939.66
2022-10-09T07:26:32.065Z,101937.38
2022-10-09T07:28:58.786Z,101941.00
2022-10-09T07:31:25.824Z,101943.03
2022-10-09T07:33:55.306Z,101952.69
2022-10-09T07:36:22.004Z,101936.53
2022-10-09T07:38:54.932Z,101936.75
2022-10-09T07:41:22.642Z,101939.59
2022-10-09T07:43:49.525Z,101936.38
2022-10-09T07:46:18.713Z,101945.22
2022-10-09T07:48:45.944Z,101943.75
2022-10-09T07:51:16.679Z,101942.25
2022-10-09T07:53:43.410Z,101939.03
2022-10-09T07:56:21.261Z,101941.88
2022-10-09T07:58:52.911Z,101937.75
2022-10-09T08:01:21.535Z,101928.44
2022-10-09T08:03:48.886Z,101919.00
2022-10-09T08:06:15.959Z,101935.72
2022-10-09T08:08:42.810Z,101916.00
2022-10-09T08:11:11.894Z,101919.66
2022-10-09T08:13:39.850Z,101910.31
2022-10-09T08:16:07.269Z,101920.00
2022-10-09T08:18:34.666Z,101916.69
2022-10-09T08:21:21.663Z,101922.03
2022-10-09T08:23:53.889Z,101923.91
2022-10-09T08:26:22.213Z,101917.03
2022-10-09T08:28:54.405Z,101894.50
2022-10-09T08:31:21.832Z,101901.53
2022-10-09T08:33:52.014Z,101907.63
2022-10-09T08:36:18.725Z,101906.78
2022-10-09T08:38:47.845Z,101893.78
2022-10-09T08:41:17.575Z,101918.09
2022-10-09T08:43:52.136Z,101904.22
2022-10-09T08:46:34.327Z,101907.69
2022-10-09T08:49:03.999Z,101913.72
2022-10-09T08:51:35.726Z,101908.47
2022-10-09T08:54:11.164Z,101900.66
2022-10-09T08:56:38.175Z,101897.09
2022-10-09T08:59:04.745Z,101900.50
2022-10-09T09:01:49.745Z,101896.91
2022-10-09T09:04:34.654Z,101893.28
2022-10-09T09:07:13.949Z,101884.41
2022-10-09T09:10:02.727Z,101885.97
2022-10-09T09:12:44.218Z,101878.78
2022-10-09T09:15:25.969Z,101888.03
2022-10-09T09:18:04.685Z,101883.31
2022-10-09T09:20:49.814Z,101856.03
2022-10-09T09:23:16.533Z,101872.06
2022-10-09T09:25:45.920Z,101850.09
2022-10-09T09:28:18.783Z,101864.34
2022-10-09T09:30:49.678Z,101859.44
2022-10-09T09:33:25.520Z,101858.91
2022-10-09T09:36:16.270Z,101856.53
2022-10-09T09:39:11.013Z,101847.28
2022-10-09T09:41:29.370Z,101834.41
2022-10-09T09:43:55.898Z,101828.63
2022-10-09T09:46:26.237Z,101824.19
2022-10-09T09:48:53.712Z,101828.78
2022-10-09T09:51:30.028Z,101836.81
2022-10-09T09:54:04.093Z,101828.13
2022-10-09T09:57:10.482Z,101815.94
2022-10-09T09:59:43.915Z,101808.06
2022-10-09T10:02:21.198Z,101819.41
2022-10-09T10:04:51.445Z,101811.78
2022-10-09T10:07:32.476Z,101815.66
2022-10-09T10:10:24.703Z,101805.50
2022-10-09T10:12:52.038Z,101802.88
2022-10-09T10:15:25.705Z,101813.91
2022-10-09T10:18:12.797Z,101803.44
2022-10-09T10:20:48.253Z,101780.84
2022-10-09T10:23:35.800Z,101749.03
2022-10-09T10:26:08.124Z,101763.06
2022-10-09T10:28:48.662Z,101778.66
2022-10-09T10:31:31.899Z,101776.69
2022-10-09T10:34:01.590Z,101768.47
2022-10-09T10:36:28.802Z,101761.06
2022-10-09T10:39:09.120Z,101761.44
2022-10-09T10:41:45.446Z,101701.41
2022-10-09T10:44:30.203Z,101752.53
2022-10-09T10:47:04.082Z,101748.50
2022-10-09T10:49:33.840Z,101715.06
2022-10-09T10:52:20.417Z,101742.25
2022-10-09T10:54:51.535Z,101746.59
2022-10-09T10:57:29.540Z,101734.25
2022-10-09T11:00:06.469Z,101727.09
2022-10-09T11:02:57.917Z,101728.84
2022-10-09T11:05:27.042Z,101716.44
2022-10-09T11:08:13.042Z,101716.25
2022-10-09T11:10:58.405Z,101700.19
2022-10-09T11:13:49.890Z,101705.41
2022-10-09T11:16:51.856Z,101696.03
2022-10-09T11:19:56.218Z,101686.94
2022-10-09T11:22:41.427Z,101698.28
2022-10-09T11:25:13.938Z,101683.34
2022-10-09T11:28:05.062Z,101677.66
2022-10-09T11:30:41.898Z,101645.03
2022-10-09T11:33:46.856Z,101674.97
2022-10-09T11:36:21.143Z,101663.44
2022-10-09T11:39:00.507Z,101649.25
2022-10-09T11:41:28.958Z,101655.91
2022-10-09T11:44:16.739Z,101654.53
2022-10-09T11:47:01.460Z,101634.22
2022-10-09T11:49:47.489Z,101643.06
2022-10-09T11:52:28.508Z,101649.75
2022-10-09T11:54:55.070Z,101635.75
2022-10-09T11:57:29.181Z,101636.13
2022-10-09T12:00:09.127Z,101639.31
2022-10-09T12:02:36.878Z,101636.81
2022-10-09T12:05:27.809Z,101610.44
2022-10-09T12:07:54.336Z,101606.13
2022-10-09T12:10:34.068Z,101635.97
2022-10-09T12:13:03.984Z,101618.19
2022-10-09T12:15:59.413Z,101614.63
2022-10-09T12:18:34.530Z,101603.47
2022-10-09T12:21:05.267Z,101612.31
2022-10-09T12:23:35.942Z,101598.34
2022-10-09T12:26:03.685Z,101590.50
2022-10-09T12:28:46.289Z,101595.56
2022-10-09T12:31:22.278Z,101590.16
2022-10-09T12:33:54.755Z,101592.78
2022-10-09T12:36:30.055Z,101579.63
2022-10-09T12:38:57.074Z,101571.78
2022-10-09T12:41:29.903Z,101575.09
2022-10-09T12:43:57.569Z,101576.00
2022-10-09T12:46:30.576Z,101536.56
2022-10-09T12:48:58.434Z,101537.91
2022-10-09T12:51:26.959Z,101555.34
2022-10-09T12:53:54.427Z,101546.97
2022-10-09T12:56:28.334Z,101543.94
2022-10-09T12:58:55.754Z,101561.44
2022-10-09T13:01:23.412Z,101547.91
2022-10-09T13:04:03.437Z,101542.13
2022-10-09T13:06:45.176Z,101515.81
2022-10-09T13:09:21.443Z,101517.66
2022-10-09T13:11:54.926Z,101517.06
2022-10-09T13:14:33.709Z,101524.28
2022-10-09T13:17:00.779Z,101512.28
2022-10-09T13:19:29.115Z,101513.13
2022-10-09T13:22:14.039Z,101502.97
2022-10-09T13:24:40.545Z,101492.59
2022-10-09T13:27:07.051Z,101491.03
2022-10-09T13:29:33.581Z,101481.56
2022-10-09T13:32:00.151Z,101460.91
2022-10-09T13:34:28.966Z,101454.78
2022-10-09T13:36:56.718Z,101470.47
2022-10-09T13:39:23.311Z,101467.84
2022-10-09T13:41:52.967Z,101474.13
2022-10-09T13:44:19.510Z,101465.56
2022-10-09T13:46:45.994Z,101458.72
2022-10-09T13:49:12.487Z,101444.78
2022-10-09T13:51:38.992Z,101434.47
2022-10-09T13:54:05.550Z,101437.75
2022-10-09T13:56:32.318Z,101420.59
2022-10-09T13:58:58.966Z,101423.00
2022-10-09T14:01:25.654Z,101414.25
2022-10-09T14:03:52.194Z,101423.47
2022-10-09T14:06:18.890Z,101403.50
2022-10-09T14:08:45.454Z,101416.56
2022-10-09T14:11:11.922Z,101386.44
2022-10-09T14:13:38.398Z,101400.88
2022-10-09T14:16:06.855Z,101397.31
2022-10-09T14:18:33.796Z,101400.88
2022-10-09T14:21:00.374Z,101378.56
2022-10-09T14:23:26.939Z,101380.44
2022-10-09T14:25:53.410Z,101387.41
2022-10-09T14:28:19.979Z,101374.53
2022-10-09T14:30:46.500Z,101358.28
2022-10-09T14:33:12.989Z,101378.81
2022-10-09T14:35:39.686Z,101375.91
2022-10-09T14:38:06.264Z,101370.38
2022-10-09T14:40:32.785Z,101376.06
2022-10-09T14:42:59.257Z,101350.81
2022-10-09T14:45:25.831Z,101340.72
2022-10-09T14:47:52.399Z,101364.56
2022-10-09T14:50:18.920Z,101354.31
2022-10-09T14:52:45.408Z,101369.28
2022-10-09T14:55:11.994Z,101353.38
2022-10-09T14:57:38.501Z,101344.22
2022-10-09T15:00:05.570Z,101326.31
2022-10-09T15:02:32.246Z,101346.50
2022-10-09T15:04:58.776Z,101347.16
2022-10-09T15:07:27.994Z,101351.28
2022-10-09T15:09:54.973Z,101327.88
2022-10-09T15:12:21.460Z,101305.06
2022-10-09T15:14:48.047Z,101324.59
2022-10-09T15:17:14.532Z,101326.50
2022-10-09T15:19:41.033Z,101325.81
2022-10-09T15:22:07.506Z,101295.50
2022-10-09T15:24:33.994Z,101301.00
2022-10-09T15:27:00.562Z,101283.22
2022-10-09T15:29:27.099Z,101303.94
2022-10-09T15:31:53.620Z,101302.84
2022-10-09T15:34:20.199Z,101294.91
2022-10-09T15:36:47.145Z,101280.09
2022-10-09T15:39:14.031Z,101258.66
2022-10-09T15:41:42.165Z,101281.78
2022-10-09T15:44:20.568Z,101269.50
2022-10-09T15:46:48.951Z,101267.22
2022-10-09T15:49:15.992Z,101262.47
2022-10-09T15:51:42.989Z,101258.44
2022-10-09T15:54:11.373Z,101257.84
2022-10-09T15:56:40.127Z,101240.06
2022-10-09T15:59:07.071Z,101240.16
2022-10-09T16:01:33.627Z,101251.00
2022-10-09T16:04:00.154Z,101238.56
2022-10-09T16:06:26.762Z,101248.41
2022-10-09T16:08:57.941Z,101240.09
2022-10-09T16:11:26.615Z,101244.88
2022-10-09T16:13:54.468Z,101214.88
2022-10-09T16:16:24.200Z,101239.34
2022-10-09T16:18:51.478Z,101223.06
2022-10-09T16:21:24.014Z,101230.50
2022-10-09T16:23:54.470Z,101222.91
2022-10-09T16:26:24.115Z,101224.06
2022-10-09T16:28:52.243Z,101227.88
2022-10-09T16:31:21.630Z,101222.97
2022-10-09T16:33:48.327Z,101209.59
2022-10-09T16:36:14.860Z,101218.34
2022-10-09T16:38:41.701Z,101204.00
2022-10-09T16:41:14.736Z,101210.31
2022-10-09T16:43:41.201Z,101210.75
2022-10-09T16:46:16.712Z,101194.88
2022-10-09T16:48:44.000Z,101204.41
2022-10-09T16:51:13.606Z,101226.63
2022-10-09T16:53:41.048Z,101219.25
2022-10-09T16:56:12.680Z,101229.94
2022-10-09T16:58:41.334Z,101235.44
2022-10-09T17:01:10.285Z,101234.84
2022-10-09T17:03:40.408Z,101203.31
2022-10-09T17:06:19.438Z,101220.09
2022-10-09T17:08:47.453Z,101206.50
2022-10-09T17:11:15.449Z,101236.81
2022-10-09T17:13:42.286Z,101228.38
2022-10-09T17:16:17.836Z,101234.66
2022-10-09T17:18:45.095Z,101232.25
2022-10-09T17:21:13.597Z,101239.44
2022-10-09T17:23:40.131Z,101236.19
2022-10-09T17:26:14.188Z,101246.84
2022-10-09T17:28:41.708Z,101252.28
2022-10-09T17:31:14.282Z,101247.38
2022-10-09T17:33:42.950Z,101251.75
2022-10-09T17:36:10.358Z,101234.75
2022-10-09T17:38:37.505Z,101235.22
2022-10-09T17:41:08.769Z,101234.50
2022-10-09T17:43:35.276Z,101258.81
2022-10-09T17:46:02.219Z,101252.09
2022-10-09T17:48:29.276Z,101264.44
2022-10-09T17:50:57.899Z,101233.66
2022-10-09T17:53:24.981Z,101256.28
2022-10-09T17:55:53.549Z,101255.50
2022-10-09T17:58:21.743Z,101258.31
2022-10-09T18:00:49.390Z,101220.69
2022-10-09T18:03:18.089Z,101256.91
2022-10-09T18:05:49.311Z,101239.06
2022-10-09T18:08:18.755Z,101261.56
2022-10-09T18:10:45.350Z,101270.38
2022-10-09T18:13:12.323Z,101261.84
2022-10-09T18:15:43.728Z,101260.22
2022-10-09T18:18:11.511Z,101258.59
2022-10-09T18:20:39.291Z,101261.25
2022-10-09T18:23:07.137Z,101252.72
2022-10-09T18:25:34.332Z,101256.25
2022-10-09T18:28:00.869Z,101267.63
2022-10-09T18:30:27.815Z,101258.16
2022-10-09T18:32:54.680Z,101247.84
2022-10-09T18:35:21.552Z,101244.53
2022-10-09T18:37:48.039Z,101248.97
2022-10-09T18:40:14.608Z,101241.31
2022-10-09T18:42:41.130Z,101246.47
2022-10-09T18:45:09.939Z,101203.69
2022-10-09T18:47:36.435Z,101238.94
2022-10-09T18:50:07.932Z,101245.13
2022-10-09T18:52:35.463Z,101256.47
2022-10-09T18:55:03.763Z,101250.44
2022-10-09T18:57:30.448Z,101248.81
2022-10-09T18:59:58.137Z,101219.53
2022-10-09T19:02:26.943Z,101241.94
2022-10-09T19:04:54.592Z,101242.03
2022-10-09T19:07:21.440Z,101244.69
2022-10-09T19:09:56.329Z,101223.97
2022-10-09T19:12:24.147Z,101222.28
2022-10-09T19:14:50.650Z,101176.69
2022-10-09T19:17:17.216Z,101211.09
2022-10-09T19:19:43.735Z,101218.09
2022-10-09T19:22:14.188Z,101216.44
2022-10-09T19:24:42.757Z,101207.81
2022-10-09T19:27:09.529Z,101213.06
2022-10-09T19:29:36.113Z,101204.41
2022-10-09T19:32:02.695Z,101192.47
2022-10-09T19:34:30.367Z,101199.34
2022-10-09T19:36:56.946Z,101184.00
2022-10-09T19:39:23.490Z,101198.69
2022-10-09T19:41:51.114Z,101186.66
2022-10-09T19:44:18.167Z,101178.97
2022-10-09T19:46:45.262Z,101190.22
2022-10-09T19:49:11.814Z,101190.31
2022-10-09T19:51:38.666Z,101186.06
2022-10-09T19:54:07.202Z,101182.59
2022-10-09T19:56:34.748Z,101186.97
2022-10-09T19:59:03.858Z,101183.53
2022-10-09T20:01:32.830Z,101180.97
2022-10-09T20:04:02.034Z,101181.00
2022-10-09T20:06:28.875Z,101172.38
2022-10-09T20:08:55.567Z,101154.34
2022-10-09T20:11:22.500Z,101174.16
2022-10-09T20:13:53.437Z,101169.00
2022-10-09T20:16:22.700Z,101174.19
2022-10-09T20:18:49.267Z,101157.88
2022-10-09T20:21:17.817Z,101167.34
2022-10-09T20:23:44.372Z,101161.34
2022-10-09T20:26:16.817Z,101164.84
2022-10-09T20:28:43.956Z,101156.22
2022-10-09T20:31:17.982Z,101174.41
2022-10-09T20:33:46.042Z,101176.19
2022-10-09T20:36:19.780Z,101182.31
2022-10-09T20:38:46.407Z,101149.56
2022-10-09T20:41:13.039Z,101172.81
2022-10-09T20:43:42.291Z,101169.38
2022-10-09T20:46:12.345Z,101174.56
2022-10-09T20:48:39.361Z,101158.25
2022-10-09T20:51:06.112Z,101176.28
2022-10-09T20:53:33.231Z,101171.97
2022-10-09T20:56:01.470Z,101165.09
2022-10-09T20:58:28.911Z,101170.31
2022-10-09T21:00:55.668Z,101170.34
2022-10-09T21:03:22.523Z,101176.41
2022-10-09T21:05:49.108Z,101161.78
2022-10-09T21:08:15.934Z,101166.09
2022-10-09T21:10:44.906Z,101180.78
2022-10-09T21:13:12.047Z,101178.25
2022-10-09T21:15:47.441Z,101176.50
2022-10-09T21:18:15.269Z,101178.22
2022-10-09T21:20:43.511Z,101178.22
2022-10-09T21:23:11.487Z,101175.63
2022-10-09T21:25:38.812Z,101173.06
2022-10-09T21:28:05.967Z,101169.66
2022-10-09T21:30:41.309Z,101173.13
2022-10-09T21:33:08.961Z,101138.63
2022-10-09T21:35:48.993Z,101170.56
2022-10-09T21:38:18.407Z,101157.63
2022-10-09T21:40:45.598Z,101176.63
2022-10-09T21:43:13.070Z,101168.00
2022-10-09T21:45:40.681Z,101161.97
2022-10-09T21:48:07.716Z,101155.91
2022-10-09T21:50:36.217Z,101145.56
2022-10-09T21:53:04.100Z,101146.47
2022-10-09T21:55:30.751Z,101144.69
2022-10-09T21:57:57.290Z,101107.81
2022-10-09T22:00:23.795Z,101144.78
2022-10-09T22:02:50.462Z,101138.72
2022-10-09T22:05:17.202Z,101143.06
2022-10-09T22:07:43.695Z,101111.19
2022-10-09T22:10:10.566Z,101137.84
2022-10-09T22:12:37.598Z,101134.41
2022-10-09T22:15:04.796Z,101127.47
2022-10-09T22:17:31.271Z,101118.88
2022-10-09T22:19:57.744Z,101118.00
2022-10-09T22:22:24.339Z,101103.28
2022-10-09T22:24:51.865Z,101082.69
2022-10-09T22:27:18.748Z,101099.88
2022-10-09T22:29:45.816Z,101097.28
2022-10-09T22:32:12.624Z,101086.91
2022-10-09T22:34:39.140Z,101092.09
2022-10-09T22:37:05.687Z,101091.31
2022-10-09T22:39:32.147Z,101099.09
2022-10-09T22:41:58.657Z,101093.84
2022-10-09T22:44:25.226Z,101070.59
2022-10-09T22:46:51.829Z,101086.06
2022-10-09T22:49:18.685Z,101072.25
2022-10-09T22:51:45.775Z,101070.47
2022-10-09T22:54:13.209Z,101054.03
2022-10-09T22:56:44.681Z,101072.19
2022-10-09T22:59:14.708Z,101074.81
2022-10-09T23:01:43.348Z,101069.63
2022-10-09T23:04:14.751Z,101061.91
2022-10-09T23:06:42.449Z,101062.72
2022-10-09T23:09:11.841Z,101064.41
2022-10-09T23:11:38.352Z,101060.97
2022-10-09T23:14:05.976Z,101049.72
2022-10-09T23:16:32.576Z,101044.53
2022-10-09T23:19:06.197Z,101055.75
2022-10-09T23:21:33.875Z,101049.72
2022-10-09T23:24:00.391Z,101039.38
2022-10-09T23:26:29.354Z,101031.53
2022-10-09T23:28:59.022Z,101041.06
2022-10-09T23:31:26.849Z,101035.00
2022-10-09T23:33:54.106Z,101045.38
2022-10-09T23:36:23.104Z,101029.84
2022-10-09T23:38:50.292Z,101010.88
2022-10-09T23:41:20.271Z,101041.00
2022-10-09T23:43:48.172Z,101041.88
2022-10-09T23:46:17.423Z,101032.38
2022-10-09T23:48:44.697Z,101047.00
2022-10-09T23:51:12.149Z,101041.75
2022-10-09T23:53:38.853Z,101011.59
2022-10-09T23:56:12.055Z,101036.53
2022-10-09T23:58:38.565Z,101040.84
